createdAt,value
2018-02-19T00:02:02.071Z,-2.20
2018-02-19T00:04:28.573Z,-2.20
2018-02-19T00:06:55.757Z,-2.10
2018-02-19T00:09:22.199Z,-2.10
2018-02-19T00:11:48.617Z,-2.10
2018-02-19T00:14:15.095Z,-2.20
2018-02-19T00:16:41.581Z,-2.30
2018-02-19T00:19:08.062Z,-2.30
2018-02-19T00:21:34.440Z,-2.40
2018-02-19T00:24:00.845Z,-2.50
2018-02-19T00:26:27.549Z,-2.40
2018-02-19T00:28:53.976Z,-2.50
2018-02-19T00:31:20.420Z,-2.50
2018-02-19T00:33:46.902Z,-2.40
2018-02-19T00:36:13.400Z,-2.40
2018-02-19T00:38:39.804Z,-2.40
2018-02-19T00:41:06.270Z,-2.30
2018-02-19T00:43:32.688Z,-2.30
2018-02-19T00:45:59.166Z,-2.10
2018-02-19T00:48:25.639Z,-2.10
2018-02-19T00:50:52.662Z,-2.10
2018-02-19T00:53:19.137Z,-2.00
2018-02-19T00:55:45.611Z,-2.00
2018-02-19T00:58:12.783Z,-2.10
2018-02-19T01:00:39.969Z,-2.10
2018-02-19T01:03:06.406Z,-2.10
2018-02-19T01:05:32.870Z,-2.00
2018-02-19T01:07:59.388Z,-2.00
2018-02-19T01:10:25.820Z,-2.00
2018-02-19T01:12:53.302Z,-1.80
2018-02-19T01:15:20.541Z,-1.70
2018-02-19T01:17:47.700Z,-1.70
2018-02-19T01:20:14.117Z,-1.70
2018-02-19T01:22:40.535Z,-1.60
2018-02-19T01:25:07.018Z,-1.70
2018-02-19T01:27:33.506Z,-1.70
2018-02-19T01:29:59.929Z,-1.70
2018-02-19T01:32:26.371Z,-1.60
2018-02-19T01:34:52.856Z,-1.60
2018-02-19T01:37:19.288Z,-1.60
2018-02-19T01:39:45.715Z,-1.50
2018-02-19T01:42:12.129Z,-1.80
2018-02-19T01:44:39.324Z,-1.70
2018-02-19T01:47:05.912Z,-1.70
2018-02-19T01:49:32.400Z,-1.80
2018-02-19T01:51:58.906Z,-1.80
2018-02-19T01:54:25.441Z,-1.80
2018-02-19T01:56:51.909Z,-1.80
2018-02-19T01:59:18.341Z,-1.80
2018-02-19T02:01:44.810Z,-1.80
2018-02-19T02:04:12.007Z,-1.90
2018-02-19T02:06:38.467Z,-1.90
2018-02-19T02:09:05.344Z,-1.90
2018-02-19T02:11:31.771Z,-1.90
2018-02-19T02:13:58.178Z,-1.90
2018-02-19T02:16:24.613Z,-1.90
2018-02-19T02:18:51.779Z,-2.10
2018-02-19T02:21:18.259Z,-2.10
2018-02-19T02:23:44.755Z,-2.10
2018-02-19T02:26:11.275Z,-2.00
2018-02-19T02:28:37.727Z,-2.10
2018-02-19T02:31:04.663Z,-1.70
2018-02-19T02:33:31.975Z,-1.80
2018-02-19T02:35:58.821Z,-1.80
2018-02-19T02:38:25.563Z,-1.70
2018-02-19T02:40:52.031Z,-1.70
2018-02-19T02:43:18.589Z,-1.60
2018-02-19T02:45:45.024Z,-1.50
2018-02-19T02:48:12.171Z,-1.50
2018-02-19T02:50:38.605Z,-1.60
2018-02-19T02:53:05.531Z,-1.50
2018-02-19T02:55:32.019Z,-1.50
2018-02-19T02:57:58.497Z,-1.60
2018-02-19T03:00:24.964Z,-1.60
2018-02-19T03:02:51.450Z,-1.60
2018-02-19T03:05:18.692Z,-1.50
2018-02-19T03:07:45.257Z,-1.60
2018-02-19T03:10:12.434Z,-1.50
2018-02-19T03:12:38.886Z,-1.50
2018-02-19T03:15:05.535Z,-1.50
2018-02-19T03:17:31.978Z,-1.40
2018-02-19T03:19:58.423Z,-1.40
2018-02-19T03:22:24.824Z,-1.40
2018-02-19T03:24:52.040Z,-1.40
2018-02-19T03:27:19.422Z,-1.40
2018-02-19T03:29:45.880Z,-1.40
2018-02-19T03:32:12.450Z,-1.30
2018-02-19T03:34:40.233Z,-1.30
2018-02-19T03:37:07.410Z,-1.40
2018-02-19T03:39:33.830Z,-1.40
2018-02-19T03:42:01.009Z,-1.40
2018-02-19T03:44:27.439Z,-1.40
2018-02-19T03:46:53.903Z,-1.40
2018-02-19T03:49:20.313Z,-1.30
2018-02-19T03:51:46.742Z,-1.30
2018-02-19T03:54:13.282Z,-1.30
2018-02-19T03:56:40.736Z,-1.30
2018-02-19T03:59:07.242Z,-1.30
2018-02-19T04:01:33.739Z,-1.30
2018-02-19T04:04:00.961Z,-1.30
2018-02-19T04:06:27.447Z,-1.30
2018-02-19T04:08:53.896Z,-1.30
2018-02-19T04:11:21.110Z,-1.30
2018-02-19T04:13:47.640Z,-1.30
2018-02-19T04:16:15.587Z,-1.20
2018-02-19T04:18:42.048Z,-1.20
2018-02-19T04:21:08.593Z,-1.20
2018-02-19T04:23:35.094Z,-1.20
2018-02-19T04:26:01.549Z,-1.20
2018-02-19T04:28:28.806Z,-1.20
2018-02-19T04:30:55.259Z,-1.20
2018-02-19T04:33:21.701Z,-1.10
2018-02-19T04:35:48.156Z,-1.10
2018-02-19T04:38:14.912Z,-1.00
2018-02-19T04:40:42.121Z,-1.00
2018-02-19T04:43:08.635Z,-1.00
2018-02-19T04:48:34.820Z,-0.80
2018-02-19T04:51:01.268Z,-0.60
2018-02-19T04:53:27.729Z,-0.70
2018-02-19T04:55:54.175Z,-0.70
2018-02-19T04:58:20.606Z,-0.70
2018-02-19T05:00:47.059Z,-0.70
2018-02-19T05:03:13.526Z,-0.70
2018-02-19T05:05:39.961Z,-0.70
2018-02-19T05:08:06.804Z,-0.80
2018-02-19T05:10:33.228Z,-0.70
2018-02-19T05:12:59.744Z,-0.60
2018-02-19T05:15:26.216Z,-0.50
2018-02-19T05:17:52.680Z,-0.60
2018-02-19T05:20:19.107Z,-0.60
2018-02-19T05:22:45.598Z,-0.60
2018-02-19T05:25:12.121Z,-0.60
2018-02-19T05:27:38.683Z,-0.60
2018-02-19T05:30:05.527Z,-0.50
2018-02-19T05:32:32.235Z,-0.60
2018-02-19T05:34:58.671Z,-0.60
2018-02-19T05:37:25.171Z,-0.60
2018-02-19T05:39:53.149Z,-0.70
2018-02-19T05:42:19.585Z,-0.70
2018-02-19T05:44:46.247Z,-0.60
2018-02-19T05:47:12.663Z,-0.70
2018-02-19T05:49:39.103Z,-0.70
2018-02-19T05:52:05.873Z,-0.70
2018-02-19T05:54:33.091Z,-0.70
2018-02-19T05:56:59.567Z,-0.70
2018-02-19T05:59:26.164Z,-0.70
2018-02-19T06:01:52.719Z,-0.70
2018-02-19T06:04:19.863Z,-0.70
2018-02-19T06:06:46.328Z,-0.70
2018-02-19T06:09:12.768Z,-0.70
2018-02-19T06:11:40.028Z,-0.70
2018-02-19T06:14:06.943Z,-0.70
2018-02-19T06:16:33.428Z,-0.70
2018-02-19T06:18:59.925Z,-0.60
2018-02-19T06:21:27.272Z,-0.50
2018-02-19T06:23:54.008Z,-0.60
2018-02-19T06:26:20.492Z,-0.60
2018-02-19T06:28:47.046Z,-0.50
2018-02-19T06:31:13.568Z,-0.50
2018-02-19T06:33:40.046Z,-0.50
2018-02-19T06:36:07.180Z,-0.50
2018-02-19T06:38:34.419Z,-0.50
2018-02-19T06:41:01.045Z,-0.60
2018-02-19T06:43:27.512Z,-0.60
2018-02-19T06:45:55.455Z,-0.70
2018-02-19T06:48:21.986Z,-0.70
2018-02-19T06:50:49.162Z,-0.50
2018-02-19T06:53:15.579Z,-0.60
2018-02-19T06:55:43.496Z,-0.60
2018-02-19T06:58:09.974Z,-0.60
2018-02-19T07:00:36.541Z,-0.50
2018-02-19T07:03:03.290Z,-0.50
2018-02-19T07:05:30.054Z,-0.50
2018-02-19T07:07:57.255Z,-0.60
2018-02-19T07:10:23.747Z,-0.60
2018-02-19T07:12:50.211Z,-0.60
2018-02-19T07:15:16.738Z,-0.60
2018-02-19T07:17:44.027Z,-0.50
2018-02-19T07:20:10.557Z,-0.60
2018-02-19T07:22:37.103Z,-0.50
2018-02-19T07:25:05.402Z,-0.40
2018-02-19T07:27:32.047Z,-0.50
2018-02-19T07:29:58.481Z,-0.30
2018-02-19T07:32:25.082Z,-0.30
2018-02-19T07:34:51.550Z,-0.30
2018-02-19T07:37:17.970Z,-0.20
2018-02-19T07:39:44.419Z,-0.20
2018-02-19T07:42:10.897Z,-0.20
2018-02-19T07:44:37.318Z,-0.10
2018-02-19T07:47:04.482Z,-0.10
2018-02-19T07:49:30.937Z,-0.10
2018-02-19T07:51:57.351Z,0.00
2018-02-19T07:54:23.808Z,0.00
2018-02-19T07:56:50.208Z,0.10
2018-02-19T07:59:16.701Z,0.10
2018-02-19T08:01:43.223Z,0.10
2018-02-19T08:04:09.812Z,0.20
2018-02-19T08:06:37.040Z,0.30
2018-02-19T08:09:04.020Z,0.30
2018-02-19T08:11:31.751Z,0.50
2018-02-19T08:13:58.181Z,0.50
2018-02-19T08:16:24.591Z,0.70
2018-02-19T08:18:51.807Z,0.90
2018-02-19T08:21:19.080Z,1.00
2018-02-19T08:23:45.544Z,1.00
2018-02-19T08:26:12.039Z,1.00
2018-02-19T08:28:39.269Z,1.20
2018-02-19T08:31:06.237Z,1.20
2018-02-19T08:33:33.484Z,1.30
2018-02-19T08:36:00.751Z,1.30
2018-02-19T08:38:27.171Z,1.30
2018-02-19T08:40:53.700Z,1.40
2018-02-19T08:43:20.172Z,1.50
2018-02-19T08:45:47.432Z,1.50
2018-02-19T08:48:13.950Z,1.50
2018-02-19T08:50:40.428Z,1.60
2018-02-19T08:53:07.621Z,1.60
2018-02-19T08:55:34.046Z,1.50
2018-02-19T08:58:01.298Z,1.70
2018-02-19T09:00:28.782Z,1.80
2018-02-19T09:02:55.941Z,1.80
2018-02-19T09:05:23.115Z,1.90
2018-02-19T09:07:49.600Z,1.90
2018-02-19T09:10:16.051Z,3.00
2018-02-19T09:12:42.523Z,2.10
2018-02-19T09:15:08.963Z,2.10
2018-02-19T09:17:36.133Z,2.10
2018-02-19T09:20:02.981Z,2.10
2018-02-19T09:22:29.443Z,2.20
2018-02-19T09:24:55.879Z,2.20
2018-02-19T09:27:23.081Z,2.30
2018-02-19T09:29:49.560Z,2.30
2018-02-19T09:32:16.742Z,2.30
2018-02-19T09:34:50.871Z,2.30
2018-02-19T09:37:18.103Z,2.30
2018-02-19T09:39:45.316Z,2.40
2018-02-19T09:42:12.429Z,2.30
2018-02-19T09:44:38.247Z,2.50
2018-02-19T09:47:05.417Z,2.70
2018-02-19T09:49:31.809Z,2.60
2018-02-19T09:51:58.315Z,2.70
2018-02-19T09:54:25.474Z,2.80
2018-02-19T09:56:51.925Z,2.80
2018-02-19T09:59:18.455Z,3.00
2018-02-19T10:01:44.908Z,3.00
2018-02-19T10:04:12.074Z,3.10
2018-02-19T10:06:38.529Z,3.00
2018-02-19T10:09:04.987Z,3.10
2018-02-19T10:11:31.436Z,3.20
2018-02-19T10:13:58.056Z,3.20
2018-02-19T10:16:24.520Z,3.20
2018-02-19T10:18:50.945Z,3.30
2018-02-19T10:21:17.792Z,3.30
2018-02-19T10:23:44.229Z,3.30
2018-02-19T10:26:11.407Z,3.30
2018-02-19T10:28:38.324Z,3.30
2018-02-19T10:31:05.600Z,3.50
2018-02-19T10:33:32.017Z,3.40
2018-02-19T10:35:58.457Z,3.60
2018-02-19T10:38:24.907Z,3.70
2018-02-19T10:40:51.341Z,3.70
2018-02-19T10:43:17.794Z,3.80
2018-02-19T10:45:44.228Z,3.90
2018-02-19T10:48:10.657Z,3.90
2018-02-19T10:50:37.072Z,3.90
2018-02-19T10:53:03.608Z,3.80
2018-02-19T10:55:30.783Z,4.00
2018-02-19T10:57:57.920Z,4.00
2018-02-19T11:00:30.487Z,4.00
2018-02-19T11:02:57.058Z,4.10
2018-02-19T11:05:24.292Z,4.10
2018-02-19T11:07:50.726Z,4.10
2018-02-19T11:10:17.160Z,4.10
2018-02-19T11:12:43.603Z,4.10
2018-02-19T11:15:10.046Z,4.10
2018-02-19T11:17:36.458Z,4.00
2018-02-19T11:20:03.110Z,4.10
2018-02-19T11:22:29.534Z,4.20
2018-02-19T11:24:55.979Z,4.30
2018-02-19T11:27:22.496Z,4.40
2018-02-19T11:29:49.679Z,4.40
2018-02-19T11:32:16.875Z,4.30
2018-02-19T11:34:43.292Z,4.30
2018-02-19T11:37:09.815Z,4.40
2018-02-19T11:39:36.979Z,4.50
2018-02-19T11:42:04.204Z,4.70
2018-02-19T11:44:30.676Z,4.60
2018-02-19T11:46:58.604Z,4.80
2018-02-19T11:49:24.999Z,4.80
2018-02-19T11:51:51.563Z,5.00
2018-02-19T11:54:18.724Z,5.10
2018-02-19T11:56:45.892Z,5.20
2018-02-19T11:59:12.372Z,5.10
2018-02-19T12:01:38.803Z,5.20
2018-02-19T12:04:05.280Z,5.30
2018-02-19T12:06:31.689Z,5.40
2018-02-19T12:08:58.134Z,5.50
2018-02-19T12:11:24.584Z,5.50
2018-02-19T12:13:51.020Z,5.60
2018-02-19T12:16:17.473Z,5.70
2018-02-19T12:18:44.122Z,5.80
2018-02-19T12:21:10.584Z,5.90
2018-02-19T12:23:37.056Z,6.00
2018-02-19T12:26:03.538Z,6.00
2018-02-19T12:28:30.020Z,6.00
2018-02-19T12:30:56.406Z,6.10
2018-02-19T12:33:23.005Z,6.30
2018-02-19T12:35:49.520Z,6.40
2018-02-19T12:38:15.975Z,6.50
2018-02-19T12:40:42.477Z,6.60
2018-02-19T12:43:08.871Z,6.80
2018-02-19T12:45:35.346Z,6.90
2018-02-19T12:48:01.778Z,7.10
2018-02-19T12:50:28.397Z,7.20
2018-02-19T12:52:54.813Z,7.10
2018-02-19T12:55:21.337Z,7.00
2018-02-19T12:57:47.741Z,7.00
2018-02-19T13:00:14.182Z,6.80
2018-02-19T13:02:40.620Z,6.70
2018-02-19T13:05:07.893Z,6.40
2018-02-19T13:07:34.482Z,6.00
2018-02-19T13:10:01.656Z,6.40
2018-02-19T13:12:28.159Z,6.40
2018-02-19T13:14:54.837Z,6.60
2018-02-19T13:17:22.035Z,6.90
2018-02-19T13:19:48.501Z,6.80
2018-02-19T13:22:14.987Z,6.80
2018-02-19T13:24:41.418Z,6.80
2018-02-19T13:27:08.630Z,6.60
2018-02-19T13:29:35.440Z,6.50
2018-02-19T13:32:02.257Z,6.60
2018-02-19T13:34:28.827Z,6.70
2018-02-19T13:36:55.299Z,6.90
2018-02-19T13:39:21.931Z,7.10
2018-02-19T13:41:49.104Z,7.50
2018-02-19T13:44:16.329Z,7.80
2018-02-19T13:46:42.803Z,7.80
2018-02-19T13:49:10.027Z,8.10
2018-02-19T13:51:36.502Z,8.10
2018-02-19T13:54:05.468Z,7.90
2018-02-19T13:56:31.992Z,7.90
2018-02-19T13:58:58.424Z,7.80
2018-02-19T14:01:24.907Z,7.70
2018-02-19T14:03:52.191Z,7.50
2018-02-19T14:06:18.709Z,7.50
2018-02-19T14:08:46.644Z,6.90
2018-02-19T14:11:13.077Z,6.90
2018-02-19T14:13:40.396Z,6.70
2018-02-19T14:16:07.322Z,6.60
2018-02-19T14:18:34.088Z,6.50
2018-02-19T14:21:00.582Z,6.50
2018-02-19T14:23:27.847Z,6.50
2018-02-19T14:25:55.135Z,6.50
2018-02-19T14:28:21.850Z,6.40
2018-02-19T14:30:48.452Z,5.40
2018-02-19T14:33:15.012Z,6.30
2018-02-19T14:35:43.151Z,6.30
2018-02-19T14:38:11.320Z,6.10
2018-02-19T14:40:37.889Z,6.00
2018-02-19T14:43:05.996Z,6.20
2018-02-19T14:45:32.558Z,6.20
2018-02-19T14:47:59.660Z,6.40
2018-02-19T14:50:26.212Z,6.30
2018-02-19T14:52:53.537Z,6.10
2018-02-19T14:55:20.846Z,6.00
2018-02-19T14:57:47.592Z,6.00
2018-02-19T15:00:15.276Z,5.90
2018-02-19T15:02:42.700Z,6.00
2018-02-19T15:05:09.348Z,5.90
2018-02-19T15:07:36.105Z,5.90
2018-02-19T15:10:04.870Z,5.80
2018-02-19T15:12:32.822Z,5.70
2018-02-19T15:14:59.383Z,5.50
2018-02-19T15:17:26.480Z,5.30
2018-02-19T15:19:54.602Z,4.90
2018-02-19T15:22:21.507Z,4.80
2018-02-19T15:24:49.824Z,4.70
2018-02-19T15:27:16.556Z,4.50
2018-02-19T15:29:44.616Z,4.30
2018-02-19T15:32:12.808Z,4.30
2018-02-19T15:34:39.647Z,4.40
2018-02-19T15:37:06.336Z,4.50
2018-02-19T15:39:34.475Z,4.50
2018-02-19T15:42:01.562Z,4.60
2018-02-19T15:44:29.567Z,4.70
2018-02-19T15:47:02.114Z,4.70
2018-02-19T15:49:30.420Z,4.80
2018-02-19T15:51:59.183Z,4.80
2018-02-19T15:54:26.004Z,4.80
2018-02-19T15:56:58.190Z,4.80
2018-02-19T15:59:26.265Z,4.80
2018-02-19T16:01:54.523Z,4.60
2018-02-19T16:04:23.788Z,4.50
2018-02-19T16:06:51.662Z,4.50
2018-02-19T16:09:18.413Z,4.40
2018-02-19T16:11:50.254Z,4.20
2018-02-19T16:14:23.103Z,4.10
2018-02-19T16:16:50.681Z,4.50
2018-02-19T16:19:17.288Z,4.10
2018-02-19T16:21:45.511Z,3.90
2018-02-19T16:24:12.030Z,3.80
2018-02-19T16:26:39.200Z,3.70
2018-02-19T16:29:06.531Z,3.50
2018-02-19T16:31:33.144Z,3.50
2018-02-19T16:33:59.719Z,3.40
2018-02-19T16:36:26.364Z,3.40
2018-02-19T16:38:53.822Z,3.30
2018-02-19T16:41:25.961Z,3.20
2018-02-19T16:43:53.580Z,3.30
2018-02-19T16:46:20.492Z,3.10
2018-02-19T16:48:48.587Z,3.10
2018-02-19T16:51:16.449Z,2.90
2018-02-19T16:53:45.149Z,2.90
2018-02-19T16:56:12.187Z,2.90
2018-02-19T16:58:42.177Z,2.80
2018-02-19T17:01:13.069Z,2.80
2018-02-19T17:03:43.457Z,2.90
2018-02-19T17:06:11.435Z,2.70
2018-02-19T17:08:40.087Z,2.70
2018-02-19T17:11:12.942Z,2.70
2018-02-19T17:13:45.014Z,2.60
2018-02-19T17:16:13.912Z,2.60
2018-02-19T17:18:42.482Z,2.60
2018-02-19T17:21:10.198Z,2.60
2018-02-19T17:23:38.216Z,2.50
2018-02-19T17:26:05.950Z,2.50
2018-02-19T17:28:32.619Z,2.50
2018-02-19T17:30:59.195Z,2.50
2018-02-19T17:33:25.988Z,2.30
2018-02-19T17:35:52.589Z,2.50
2018-02-19T17:38:19.396Z,2.50
2018-02-19T17:40:46.256Z,2.50
2018-02-19T17:43:14.378Z,2.50
2018-02-19T17:45:41.162Z,2.40
2018-02-19T17:48:07.880Z,2.40
2018-02-19T17:50:35.402Z,2.40
2018-02-19T17:53:01.875Z,2.40
2018-02-19T17:55:28.292Z,2.40
2018-02-19T17:57:55.540Z,2.40
2018-02-19T18:00:22.095Z,2.40
2018-02-19T18:02:48.575Z,2.40
2018-02-19T18:05:15.027Z,2.40
2018-02-19T18:07:41.560Z,2.40
2018-02-19T18:10:08.168Z,2.40
2018-02-19T18:12:34.589Z,2.40
2018-02-19T18:15:01.037Z,2.30
2018-02-19T18:17:27.487Z,2.30
2018-02-19T18:19:54.687Z,2.30
2018-02-19T18:22:21.151Z,2.30
2018-02-19T18:24:47.623Z,2.30
2018-02-19T18:27:14.163Z,2.40
2018-02-19T18:29:41.475Z,2.30
2018-02-19T18:32:08.007Z,2.40
2018-02-19T18:34:34.487Z,2.30
2018-02-19T18:37:00.927Z,2.30
2018-02-19T18:39:27.368Z,2.30
2018-02-19T18:41:53.909Z,2.30
2018-02-19T18:44:20.508Z,2.30
2018-02-19T18:46:46.980Z,2.30
2018-02-19T18:49:13.433Z,2.30
2018-02-19T18:51:40.110Z,1.40
2018-02-19T18:54:06.622Z,2.20
2018-02-19T18:56:33.164Z,2.20
2018-02-19T18:59:00.383Z,2.10
2018-02-19T19:01:26.878Z,2.10
2018-02-19T19:03:53.299Z,2.10
2018-02-19T19:06:19.792Z,2.10
2018-02-19T19:08:58.449Z,2.10
2018-02-19T19:11:24.932Z,2.10
2018-02-19T19:13:52.406Z,2.00
2018-02-19T19:16:19.663Z,2.00
2018-02-19T19:18:46.115Z,2.00
2018-02-19T19:21:12.649Z,2.00
2018-02-19T19:23:39.106Z,2.00
2018-02-19T19:26:05.955Z,2.00
2018-02-19T19:28:33.173Z,1.90
2018-02-19T19:30:59.657Z,1.90
2018-02-19T19:33:26.100Z,1.90
2018-02-19T19:35:54.033Z,1.90
2018-02-19T19:38:20.532Z,1.90
2018-02-19T19:40:47.767Z,1.80
2018-02-19T19:43:14.207Z,1.80
2018-02-19T19:45:40.776Z,1.80
2018-02-19T19:48:08.076Z,1.90
2018-02-19T19:50:34.603Z,1.90
2018-02-19T19:53:01.976Z,1.90
2018-02-19T19:55:29.368Z,1.90
2018-02-19T19:57:56.532Z,2.00
2018-02-19T20:00:22.976Z,1.90
2018-02-19T20:02:49.689Z,1.90
2018-02-19T20:05:16.116Z,1.90
2018-02-19T20:07:43.319Z,1.80
2018-02-19T20:10:10.545Z,1.70
2018-02-19T20:12:37.069Z,1.70
2018-02-19T20:15:04.156Z,1.70
2018-02-19T20:17:30.702Z,1.80
2018-02-19T20:19:57.908Z,1.70
2018-02-19T20:22:24.340Z,1.70
2018-02-19T20:24:51.586Z,1.70
2018-02-19T20:27:18.071Z,1.70
2018-02-19T20:29:44.606Z,1.70
2018-02-19T20:32:11.098Z,1.70
2018-02-19T20:34:38.575Z,1.70
2018-02-19T20:37:05.516Z,1.70
2018-02-19T20:39:31.944Z,1.60
2018-02-19T20:41:58.392Z,1.60
2018-02-19T20:44:24.860Z,1.60
2018-02-19T20:46:51.302Z,1.50
2018-02-19T20:49:18.734Z,1.50
2018-02-19T20:51:45.191Z,1.50
2018-02-19T20:54:11.668Z,1.50
2018-02-19T20:56:38.091Z,1.50
2018-02-19T20:59:05.042Z,1.50
2018-02-19T21:01:31.502Z,1.50
2018-02-19T21:03:58.022Z,1.50
2018-02-19T21:06:24.467Z,1.40
2018-02-19T21:08:50.951Z,1.40
2018-02-19T21:11:18.211Z,1.40
2018-02-19T21:13:45.440Z,1.30
2018-02-19T21:16:12.000Z,1.30
2018-02-19T21:18:38.547Z,1.30
2018-02-19T21:21:05.763Z,1.30
2018-02-19T21:23:32.447Z,1.30
2018-02-19T21:25:59.032Z,1.30
2018-02-19T21:28:25.487Z,1.30
2018-02-19T21:30:51.976Z,1.30
2018-02-19T21:33:18.413Z,1.30
2018-02-19T21:35:44.934Z,1.30
2018-02-19T21:38:12.102Z,1.30
2018-02-19T21:40:38.591Z,1.20
2018-02-19T21:43:05.633Z,1.30
2018-02-19T21:45:32.052Z,1.20
2018-02-19T21:47:58.539Z,1.20
2018-02-19T21:50:25.728Z,1.10
2018-02-19T21:52:52.227Z,1.10
2018-02-19T21:55:18.635Z,1.10
2018-02-19T21:57:45.103Z,1.10
2018-02-19T22:00:11.574Z,1.90
2018-02-19T22:02:37.993Z,1.10
2018-02-19T22:05:04.858Z,1.10
2018-02-19T22:07:31.995Z,2.30
2018-02-19T22:09:58.451Z,1.20
2018-02-19T22:12:24.908Z,1.20
2018-02-19T22:14:51.445Z,1.20
2018-02-19T22:17:18.688Z,1.20
2018-02-19T22:19:45.919Z,1.20
2018-02-19T22:22:12.374Z,1.10
2018-02-19T22:24:38.852Z,1.20
2018-02-19T22:27:05.434Z,1.10
2018-02-19T22:29:31.954Z,1.20
2018-02-19T22:31:59.200Z,1.10
2018-02-19T22:34:25.759Z,1.00
2018-02-19T22:36:52.164Z,1.00
2018-02-19T22:39:18.643Z,1.10
2018-02-19T22:41:45.180Z,1.10
2018-02-19T22:44:12.441Z,1.00
2018-02-19T22:46:39.764Z,1.00
2018-02-19T22:49:06.248Z,1.00
2018-02-19T22:51:32.800Z,1.00
2018-02-19T22:53:59.538Z,0.90
2018-02-19T22:56:25.956Z,0.90
2018-02-19T22:58:52.387Z,0.90
2018-02-19T23:01:18.843Z,0.80
2018-02-19T23:03:45.327Z,0.80
2018-02-19T23:06:11.883Z,0.80
2018-02-19T23:08:38.314Z,0.80
2018-02-19T23:11:05.281Z,0.80
2018-02-19T23:13:31.712Z,1.70
2018-02-19T23:15:58.173Z,0.70
2018-02-19T23:18:24.596Z,0.70
2018-02-19T23:20:51.257Z,0.70
2018-02-19T23:23:17.671Z,0.70
2018-02-19T23:25:44.156Z,0.70
2018-02-19T23:28:10.615Z,0.70
2018-02-19T23:30:37.784Z,0.70
2018-02-19T23:33:05.123Z,0.70
2018-02-19T23:35:32.360Z,0.70
2018-02-19T23:37:58.770Z,0.60
2018-02-19T23:40:25.266Z,0.60
2018-02-19T23:42:51.731Z,0.60
2018-02-19T23:45:18.568Z,0.60
2018-02-19T23:47:45.024Z,0.60
2018-02-19T23:50:11.559Z,0.50
2018-02-19T23:52:38.033Z,0.40
2018-02-19T23:55:04.875Z,0.40
2018-02-19T23:57:32.082Z,0.20
2018-02-19T23:59:58.510Z,0.10
